TimePST,TemperatureF,Dew PointF,Humidity,Sea Level PressureIn,VisibilityMPH,Wind Direction,Wind SpeedMPH,Gust SpeedMPH,PrecipitationIn,Events,Conditions,WindDirDegrees,DateUTC
12:53 AM,50.0,39.9,68,30.34,10.0,NNW,15.0,-,N/A,,Overcast,330,2013-02-13 08:53:00
1:53 AM,50.0,39.9,68,30.35,10.0,NNW,17.3,-,N/A,,Overcast,330,2013-02-13 09:53:00
2:53 AM,50.0,41.0,71,30.34,10.0,NNW,12.7,-,N/A,,Overcast,330,2013-02-13 10:53:00
3:53 AM,50.0,41.0,71,30.33,10.0,NNW,12.7,-,N/A,,Overcast,340,2013-02-13 11:53:00
4:53 AM,50.0,39.9,68,30.34,10.0,NNW,12.7,-,N/A,,Overcast,340,2013-02-13 12:53:00
5:53 AM,48.9,39.9,71,30.35,10.0,NNW,12.7,-,N/A,,Overcast,330,2013-02-13 13:53:00
6:53 AM,48.9,39.9,71,30.35,10.0,NNW,11.5,-,N/A,,Overcast,330,2013-02-13 14:53:00
7:53 AM,48.9,41.0,74,30.37,10.0,NNW,12.7,-,N/A,,Overcast,330,2013-02-13 15:53:00
8:53 AM,50.0,41.0,71,30.38,10.0,NNW,13.8,-,N/A,,Overcast,330,2013-02-13 16:53:00
9:53 AM,51.1,41.0,68,30.39,10.0,NNW,16.1,-,N/A,,Mostly Cloudy,330,2013-02-13 17:53:00
10:53 AM,55.0,42.1,62,30.39,10.0,NNW,13.8,-,N/A,,Partly Cloudy,330,2013-02-13 18:53:00
11:53 AM,57.0,41.0,55,30.38,10.0,NW,16.1,-,N/A,,Partly Cloudy,320,2013-02-13 19:53:00
12:53 PM,55.0,37.0,51,30.37,10.0,NW,11.5,-,N/A,,Clear,310,2013-02-13 20:53:00
1:53 PM,54.0,36.0,51,30.35,10.0,WNW,20.7,25.3,N/A,,Clear,290,2013-02-13 21:53:00
2:53 PM,53.1,34.0,48,30.36,10.0,WNW,16.1,24.2,N/A,,Partly Cloudy,300,2013-02-13 22:53:00
3:53 PM,54.0,35.1,49,30.38,10.0,WNW,15.0,-,N/A,,Clear,290,2013-02-13 23:53:00
4:53 PM,52.0,34.0,50,30.38,10.0,NW,13.8,-,N/A,,Clear,310,2013-02-14 00:53:00
5:53 PM,48.9,36.0,61,30.38,10.0,NW,10.4,-,N/A,,Clear,310,2013-02-14 01:53:00
6:53 PM,48.9,37.0,64,30.41,10.0,WNW,18.4,24.2,N/A,,Clear,300,2013-02-14 02:53:00
7:53 PM,48.0,36.0,63,30.42,10.0,NNW,8.1,-,N/A,,Clear,330,2013-02-14 03:53:00
8:53 PM,46.9,34.0,61,30.44,10.0,NW,12.7,-,N/A,,Clear,320,2013-02-14 04:53:00
9:53 PM,48.0,34.0,58,30.43,10.0,WNW,20.7,-,N/A,,Clear,300,2013-02-14 05:53:00
10:53 PM,46.0,34.0,63,30.46,10.0,Variable,6.9,-,N/A,,Clear,0,2013-02-14 06:53:00
11:53 PM,46.0,35.1,66,30.46,10.0,WNW,11.5,-,N/A,,Clear,290,2013-02-14 07:53:00